sensor_id;sensor_type;location;lat;lon;timestamp;P1;durP1;ratioP1;P2;durP2;ratioP2
38787;SDS011;24536;45.488;12.238;2023-05-09T00:00:36;5.78;;;4.47;;
38787;SDS011;24536;45.488;12.238;2023-05-09T00:03:02;5.72;;;4.32;;
38787;SDS011;24536;45.488;12.238;2023-05-09T00:05:30;5.65;;;3.95;;
38787;SDS011;24536;45.488;12.238;2023-05-09T00:07:55;4.22;;;3.83;;
38787;SDS011;24536;45.488;12.238;2023-05-09T00:10:21;5.20;;;3.83;;
38787;SDS011;24536;45.488;12.238;2023-05-09T00:12:47;4.32;;;3.92;;
38787;SDS011;24536;45.488;12.238;2023-05-09T00:15:13;3.83;;;3.40;;
38787;SDS011;24536;45.488;12.238;2023-05-09T00:17:39;6.65;;;3.97;;
38787;SDS011;24536;45.488;12.238;2023-05-09T00:20:06;6.45;;;3.45;;
38787;SDS011;24536;45.488;12.238;2023-05-09T00:22:35;5.00;;;3.85;;
38787;SDS011;24536;45.488;12.238;2023-05-09T00:25:02;5.00;;;3.25;;
38787;SDS011;24536;45.488;12.238;2023-05-09T00:27:28;4.38;;;3.65;;
38787;SDS011;24536;45.488;12.238;2023-05-09T00:29:54;6.13;;;4.53;;
38787;SDS011;24536;45.488;12.238;2023-05-09T00:32:20;4.30;;;3.67;;
38787;SDS011;24536;45.488;12.238;2023-05-09T00:34:46;4.72;;;4.07;;
38787;SDS011;24536;45.488;12.238;2023-05-09T00:37:12;3.60;;;3.30;;
38787;SDS011;24536;45.488;12.238;2023-05-09T00:39:37;3.40;;;3.10;;
38787;SDS011;24536;45.488;12.238;2023-05-09T00:42:03;7.28;;;4.25;;
38787;SDS011;24536;45.488;12.238;2023-05-09T00:44:28;4.90;;;3.58;;
38787;SDS011;24536;45.488;12.238;2023-05-09T00:46:54;3.80;;;3.40;;
38787;SDS011;24536;45.488;12.238;2023-05-09T00:49:20;5.55;;;3.95;;
38787;SDS011;24536;45.488;12.238;2023-05-09T00:51:46;4.50;;;4.05;;
38787;SDS011;24536;45.488;12.238;2023-05-09T00:54:12;3.92;;;3.45;;
38787;SDS011;24536;45.488;12.238;2023-05-09T00:56:37;3.90;;;3.15;;
38787;SDS011;24536;45.488;12.238;2023-05-09T00:59:03;4.80;;;3.95;;
38787;SDS011;24536;45.488;12.238;2023-05-09T01:01:30;4.43;;;3.60;;
38787;SDS011;24536;45.488;12.238;2023-05-09T01:03:56;5.18;;;4.15;;
38787;SDS011;24536;45.488;12.238;2023-05-09T01:06:27;5.00;;;3.55;;
38787;SDS011;24536;45.488;12.238;2023-05-09T01:11:46;4.43;;;3.88;;
38787;SDS011;24536;45.488;12.238;2023-05-09T01:22:12;4.65;;;3.53;;
38787;SDS011;24536;45.488;12.238;2023-05-09T01:27:22;5.43;;;3.78;;
38787;SDS011;24536;45.488;12.238;2023-05-09T01:30:14;4.80;;;3.88;;
38787;SDS011;24536;45.488;12.238;2023-05-09T01:32:44;4.95;;;3.90;;
38787;SDS011;24536;45.488;12.238;2023-05-09T01:35:14;4.60;;;3.97;;
38787;SDS011;24536;45.488;12.238;2023-05-09T01:37:41;3.92;;;3.40;;
38787;SDS011;24536;45.488;12.238;2023-05-09T01:40:18;5.30;;;4.75;;
38787;SDS011;24536;45.488;12.238;2023-05-09T01:42:54;5.63;;;3.67;;
38787;SDS011;24536;45.488;12.238;2023-05-09T01:45:26;3.80;;;3.35;;
38787;SDS011;24536;45.488;12.238;2023-05-09T01:47:54;4.28;;;3.47;;
38787;SDS011;24536;45.488;12.238;2023-05-09T01:50:21;5.18;;;3.72;;
38787;SDS011;24536;45.488;12.238;2023-05-09T01:52:48;4.68;;;4.00;;
38787;SDS011;24536;45.488;12.238;2023-05-09T01:55:17;4.30;;;3.13;;
38787;SDS011;24536;45.488;12.238;2023-05-09T01:57:45;3.53;;;3.05;;
38787;SDS011;24536;45.488;12.238;2023-05-09T02:00:12;5.35;;;3.80;;
38787;SDS011;24536;45.488;12.238;2023-05-09T02:02:39;4.50;;;3.67;;
38787;SDS011;24536;45.488;12.238;2023-05-09T02:05:05;4.60;;;4.03;;
38787;SDS011;24536;45.488;12.238;2023-05-09T02:07:34;3.90;;;3.50;;
38787;SDS011;24536;45.488;12.238;2023-05-09T02:10:01;4.00;;;3.53;;
38787;SDS011;24536;45.488;12.238;2023-05-09T02:12:28;4.82;;;3.78;;
38787;SDS011;24536;45.488;12.238;2023-05-09T02:14:54;4.30;;;3.38;;
38787;SDS011;24536;45.488;12.238;2023-05-09T02:17:20;4.22;;;3.83;;
38787;SDS011;24536;45.488;12.238;2023-05-09T02:19:46;3.70;;;3.20;;
38787;SDS011;24536;45.488;12.238;2023-05-09T02:22:12;5.35;;;3.90;;
38787;SDS011;24536;45.488;12.238;2023-05-09T02:24:38;4.10;;;3.70;;
38787;SDS011;24536;45.488;12.238;2023-05-09T02:27:04;5.20;;;3.65;;
38787;SDS011;24536;45.488;12.238;2023-05-09T02:29:38;4.50;;;3.80;;
38787;SDS011;24536;45.488;12.238;2023-05-09T02:32:11;3.75;;;3.35;;
38787;SDS011;24536;45.488;12.238;2023-05-09T02:34:40;8.15;;;3.88;;
38787;SDS011;24536;45.488;12.238;2023-05-09T02:37:07;6.00;;;3.95;;
38787;SDS011;24536;45.488;12.238;2023-05-09T02:39:34;5.03;;;4.00;;
38787;SDS011;24536;45.488;12.238;2023-05-09T02:42:09;4.25;;;3.85;;
38787;SDS011;24536;45.488;12.238;2023-05-09T02:44:36;4.20;;;3.80;;
38787;SDS011;24536;45.488;12.238;2023-05-09T02:47:03;5.03;;;3.88;;
38787;SDS011;24536;45.488;12.238;2023-05-09T02:49:31;5.32;;;4.28;;
38787;SDS011;24536;45.488;12.238;2023-05-09T02:51:57;4.13;;;3.65;;
38787;SDS011;24536;45.488;12.238;2023-05-09T02:54:23;5.80;;;4.32;;
38787;SDS011;24536;45.488;12.238;2023-05-09T02:56:48;4.00;;;3.60;;
38787;SDS011;24536;45.488;12.238;2023-05-09T02:59:14;7.10;;;4.10;;
38787;SDS011;24536;45.488;12.238;2023-05-09T03:01:41;5.03;;;3.78;;
38787;SDS011;24536;45.488;12.238;2023-05-09T03:04:07;4.22;;;3.83;;
38787;SDS011;24536;45.488;12.238;2023-05-09T03:06:33;4.07;;;3.60;;
38787;SDS011;24536;45.488;12.238;2023-05-09T03:08:58;4.25;;;3.72;;
38787;SDS011;24536;45.488;12.238;2023-05-09T03:11:24;3.85;;;3.40;;
38787;SDS011;24536;45.488;12.238;2023-05-09T03:13:50;4.82;;;3.88;;
38787;SDS011;24536;45.488;12.238;2023-05-09T03:16:16;4.57;;;4.18;;
38787;SDS011;24536;45.488;12.238;2023-05-09T03:18:42;6.18;;;4.30;;
38787;SDS011;24536;45.488;12.238;2023-05-09T03:21:08;3.97;;;3.58;;
38787;SDS011;24536;45.488;12.238;2023-05-09T03:23:34;4.47;;;3.50;;
38787;SDS011;24536;45.488;12.238;2023-05-09T03:26:00;3.92;;;3.47;;
38787;SDS011;24536;45.488;12.238;2023-05-09T03:28:26;3.88;;;3.47;;
38787;SDS011;24536;45.488;12.238;2023-05-09T03:30:52;5.05;;;4.20;;
38787;SDS011;24536;45.488;12.238;2023-05-09T03:33:18;4.30;;;3.83;;
38787;SDS011;24536;45.488;12.238;2023-05-09T03:35:45;4.00;;;3.53;;
38787;SDS011;24536;45.488;12.238;2023-05-09T03:38:10;3.90;;;3.50;;
38787;SDS011;24536;45.488;12.238;2023-05-09T03:40:36;5.07;;;4.00;;
38787;SDS011;24536;45.488;12.238;2023-05-09T03:43:02;3.67;;;3.30;;
38787;SDS011;24536;45.488;12.238;2023-05-09T03:45:27;3.85;;;3.47;;
38787;SDS011;24536;45.488;12.238;2023-05-09T03:47:53;5.25;;;3.83;;
38787;SDS011;24536;45.488;12.238;2023-05-09T03:50:19;3.47;;;3.17;;
38787;SDS011;24536;45.488;12.238;2023-05-09T03:52:44;5.82;;;3.70;;
38787;SDS011;24536;45.488;12.238;2023-05-09T03:55:10;6.10;;;3.55;;
38787;SDS011;24536;45.488;12.238;2023-05-09T03:57:36;6.05;;;3.85;;
38787;SDS011;24536;45.488;12.238;2023-05-09T04:00:02;4.78;;;4.25;;
38787;SDS011;24536;45.488;12.238;2023-05-09T04:02:32;4.43;;;3.60;;
38787;SDS011;24536;45.488;12.238;2023-05-09T04:04:58;4.93;;;3.25;;
38787;SDS011;24536;45.488;12.238;2023-05-09T04:07:25;4.82;;;3.72;;
38787;SDS011;24536;45.488;12.238;2023-05-09T04:09:52;4.32;;;3.80;;
38787;SDS011;24536;45.488;12.238;2023-05-09T04:12:19;4.43;;;3.58;;
38787;SDS011;24536;45.488;12.238;2023-05-09T04:14:45;3.92;;;3.53;;
38787;SDS011;24536;45.488;12.238;2023-05-09T04:17:11;5.00;;;4.43;;
38787;SDS011;24536;45.488;12.238;2023-05-09T04:19:37;5.97;;;3.70;;
38787;SDS011;24536;45.488;12.238;2023-05-09T04:22:02;4.25;;;3.80;;
38787;SDS011;24536;45.488;12.238;2023-05-09T04:24:28;5.20;;;3.85;;
38787;SDS011;24536;45.488;12.238;2023-05-09T04:26:54;3.75;;;3.33;;
38787;SDS011;24536;45.488;12.238;2023-05-09T04:29:19;4.18;;;3.78;;
38787;SDS011;24536;45.488;12.238;2023-05-09T04:31:45;4.47;;;3.72;;
38787;SDS011;24536;45.488;12.238;2023-05-09T04:34:11;4.40;;;3.88;;
38787;SDS011;24536;45.488;12.238;2023-05-09T04:36:37;6.55;;;4.15;;
38787;SDS011;24536;45.488;12.238;2023-05-09T04:39:03;4.90;;;4.32;;
38787;SDS011;24536;45.488;12.238;2023-05-09T04:41:32;4.65;;;3.95;;
38787;SDS011;24536;45.488;12.238;2023-05-09T04:43:57;4.88;;;3.70;;
38787;SDS011;24536;45.488;12.238;2023-05-09T04:46:23;5.30;;;4.57;;
38787;SDS011;24536;45.488;12.238;2023-05-09T04:48:49;5.85;;;4.00;;
38787;SDS011;24536;45.488;12.238;2023-05-09T04:51:15;4.07;;;3.28;;
38787;SDS011;24536;45.488;12.238;2023-05-09T04:53:41;6.10;;;4.00;;
38787;SDS011;24536;45.488;12.238;2023-05-09T04:56:06;5.30;;;3.53;;
38787;SDS011;24536;45.488;12.238;2023-05-09T04:58:32;6.07;;;3.70;;
38787;SDS011;24536;45.488;12.238;2023-05-09T05:01:02;4.75;;;3.55;;
38787;SDS011;24536;45.488;12.238;2023-05-09T05:03:29;5.05;;;4.28;;
38787;SDS011;24536;45.488;12.238;2023-05-09T05:05:54;4.72;;;3.83;;
38787;SDS011;24536;45.488;12.238;2023-05-09T05:08:20;5.40;;;3.47;;
38787;SDS011;24536;45.488;12.238;2023-05-09T05:10:46;3.90;;;3.50;;
38787;SDS011;24536;45.488;12.238;2023-05-09T05:13:13;4.15;;;3.75;;
38787;SDS011;24536;45.488;12.238;2023-05-09T05:15:38;3.97;;;3.40;;
38787;SDS011;24536;45.488;12.238;2023-05-09T05:18:05;4.28;;;3.42;;
38787;SDS011;24536;45.488;12.238;2023-05-09T05:20:31;4.68;;;3.80;;
38787;SDS011;24536;45.488;12.238;2023-05-09T05:22:57;5.28;;;3.65;;
38787;SDS011;24536;45.488;12.238;2023-05-09T05:25:23;3.80;;;3.40;;
38787;SDS011;24536;45.488;12.238;2023-05-09T05:27:49;5.00;;;3.78;;
38787;SDS011;24536;45.488;12.238;2023-05-09T05:30:15;3.88;;;3.40;;
38787;SDS011;24536;45.488;12.238;2023-05-09T05:32:40;16.08;;;3.80;;
38787;SDS011;24536;45.488;12.238;2023-05-09T05:35:07;4.18;;;3.42;;
38787;SDS011;24536;45.488;12.238;2023-05-09T05:37:36;4.97;;;3.72;;
38787;SDS011;24536;45.488;12.238;2023-05-09T05:40:02;6.93;;;4.00;;
38787;SDS011;24536;45.488;12.238;2023-05-09T05:42:29;4.88;;;4.22;;
38787;SDS011;24536;45.488;12.238;2023-05-09T05:44:55;4.40;;;3.55;;
38787;SDS011;24536;45.488;12.238;2023-05-09T05:47:21;4.70;;;4.05;;
38787;SDS011;24536;45.488;12.238;2023-05-09T05:49:47;5.32;;;3.28;;
38787;SDS011;24536;45.488;12.238;2023-05-09T05:52:13;4.85;;;3.70;;
38787;SDS011;24536;45.488;12.238;2023-05-09T05:54:38;5.38;;;3.72;;
38787;SDS011;24536;45.488;12.238;2023-05-09T05:57:06;7.40;;;4.95;;
38787;SDS011;24536;45.488;12.238;2023-05-09T05:59:32;4.95;;;4.00;;
38787;SDS011;24536;45.488;12.238;2023-05-09T06:01:57;4.57;;;4.07;;
38787;SDS011;24536;45.488;12.238;2023-05-09T06:04:23;5.10;;;3.70;;
38787;SDS011;24536;45.488;12.238;2023-05-09T06:06:49;5.05;;;3.85;;
38787;SDS011;24536;45.488;12.238;2023-05-09T06:09:15;4.68;;;4.03;;
38787;SDS011;24536;45.488;12.238;2023-05-09T06:11:40;4.00;;;3.47;;
38787;SDS011;24536;45.488;12.238;2023-05-09T06:14:06;7.38;;;4.93;;
38787;SDS011;24536;45.488;12.238;2023-05-09T06:16:32;3.80;;;3.20;;
38787;SDS011;24536;45.488;12.238;2023-05-09T06:18:57;4.85;;;3.80;;
38787;SDS011;24536;45.488;12.238;2023-05-09T06:21:23;6.35;;;3.67;;
38787;SDS011;24536;45.488;12.238;2023-05-09T06:23:50;4.20;;;3.28;;
38787;SDS011;24536;45.488;12.238;2023-05-09T06:26:15;5.53;;;4.35;;
38787;SDS011;24536;45.488;12.238;2023-05-09T06:28:41;4.28;;;3.30;;
38787;SDS011;24536;45.488;12.238;2023-05-09T06:31:07;4.22;;;3.75;;
38787;SDS011;24536;45.488;12.238;2023-05-09T06:33:32;3.47;;;2.78;;
38787;SDS011;24536;45.488;12.238;2023-05-09T06:35:58;3.92;;;2.63;;
38787;SDS011;24536;45.488;12.238;2023-05-09T06:38:24;3.33;;;2.90;;
38787;SDS011;24536;45.488;12.238;2023-05-09T06:40:50;3.67;;;2.92;;
38787;SDS011;24536;45.488;12.238;2023-05-09T06:43:15;5.75;;;3.20;;
38787;SDS011;24536;45.488;12.238;2023-05-09T06:45:41;4.38;;;3.42;;
38787;SDS011;24536;45.488;12.238;2023-05-09T06:48:07;3.53;;;2.97;;
38787;SDS011;24536;45.488;12.238;2023-05-09T06:50:32;3.78;;;3.38;;
38787;SDS011;24536;45.488;12.238;2023-05-09T06:52:58;8.65;;;3.08;;
38787;SDS011;24536;45.488;12.238;2023-05-09T06:55:24;3.50;;;2.97;;
38787;SDS011;24536;45.488;12.238;2023-05-09T06:57:49;4.30;;;3.20;;
38787;SDS011;24536;45.488;12.238;2023-05-09T07:00:15;3.45;;;3.13;;
38787;SDS011;24536;45.488;12.238;2023-05-09T07:02:41;3.97;;;3.45;;
38787;SDS011;24536;45.488;12.238;2023-05-09T07:05:07;3.40;;;2.75;;
38787;SDS011;24536;45.488;12.238;2023-05-09T07:07:34;5.30;;;2.83;;
38787;SDS011;24536;45.488;12.238;2023-05-09T07:10:00;4.25;;;3.15;;
38787;SDS011;24536;45.488;12.238;2023-05-09T07:12:29;3.38;;;3.08;;
38787;SDS011;24536;45.488;12.238;2023-05-09T07:14:55;4.05;;;3.22;;
38787;SDS011;24536;45.488;12.238;2023-05-09T07:17:22;3.53;;;2.75;;
38787;SDS011;24536;45.488;12.238;2023-05-09T07:19:48;5.65;;;4.13;;
38787;SDS011;24536;45.488;12.238;2023-05-09T07:22:14;5.55;;;3.65;;
38787;SDS011;24536;45.488;12.238;2023-05-09T07:24:40;3.53;;;2.90;;
38787;SDS011;24536;45.488;12.238;2023-05-09T07:27:06;5.63;;;3.38;;
38787;SDS011;24536;45.488;12.238;2023-05-09T07:29:31;3.38;;;3.08;;
38787;SDS011;24536;45.488;12.238;2023-05-09T07:31:57;3.38;;;2.78;;
38787;SDS011;24536;45.488;12.238;2023-05-09T07:34:22;4.05;;;3.25;;
38787;SDS011;24536;45.488;12.238;2023-05-09T07:36:49;3.65;;;3.08;;
38787;SDS011;24536;45.488;12.238;2023-05-09T07:39:15;3.88;;;3.05;;
38787;SDS011;24536;45.488;12.238;2023-05-09T07:41:41;8.05;;;4.65;;
38787;SDS011;24536;45.488;12.238;2023-05-09T07:44:06;5.35;;;3.95;;
38787;SDS011;24536;45.488;12.238;2023-05-09T07:46:34;4.53;;;3.28;;
38787;SDS011;24536;45.488;12.238;2023-05-09T07:49:01;4.35;;;3.53;;
38787;SDS011;24536;45.488;12.238;2023-05-09T07:51:27;4.20;;;3.10;;
38787;SDS011;24536;45.488;12.238;2023-05-09T07:53:53;3.97;;;3.05;;
38787;SDS011;24536;45.488;12.238;2023-05-09T07:56:20;7.22;;;3.40;;
38787;SDS011;24536;45.488;12.238;2023-05-09T07:58:47;3.50;;;3.20;;
38787;SDS011;24536;45.488;12.238;2023-05-09T08:01:13;3.90;;;3.50;;
38787;SDS011;24536;45.488;12.238;2023-05-09T08:03:39;4.57;;;4.18;;
38787;SDS011;24536;45.488;12.238;2023-05-09T08:06:05;3.83;;;3.38;;
38787;SDS011;24536;45.488;12.238;2023-05-09T08:08:31;4.30;;;3.28;;
38787;SDS011;24536;45.488;12.238;2023-05-09T08:10:57;4.38;;;3.78;;
38787;SDS011;24536;45.488;12.238;2023-05-09T08:13:23;4.85;;;3.95;;
38787;SDS011;24536;45.488;12.238;2023-05-09T08:15:49;3.33;;;2.67;;
38787;SDS011;24536;45.488;12.238;2023-05-09T08:18:15;5.78;;;4.50;;
38787;SDS011;24536;45.488;12.238;2023-05-09T08:20:41;3.83;;;3.42;;
38787;SDS011;24536;45.488;12.238;2023-05-09T08:23:07;10.05;;;4.65;;
38787;SDS011;24536;45.488;12.238;2023-05-09T08:25:33;5.00;;;3.47;;
38787;SDS011;24536;45.488;12.238;2023-05-09T08:27:59;7.43;;;3.63;;
38787;SDS011;24536;45.488;12.238;2023-05-09T08:30:25;3.78;;;3.08;;
38787;SDS011;24536;45.488;12.238;2023-05-09T08:32:56;5.47;;;4.00;;
38787;SDS011;24536;45.488;12.238;2023-05-09T08:35:21;4.43;;;3.75;;
38787;SDS011;24536;45.488;12.238;2023-05-09T08:37:47;4.53;;;3.83;;
38787;SDS011;24536;45.488;12.238;2023-05-09T08:40:13;4.65;;;3.92;;
38787;SDS011;24536;45.488;12.238;2023-05-09T08:42:40;4.35;;;3.35;;
38787;SDS011;24536;45.488;12.238;2023-05-09T08:45:10;4.47;;;3.67;;
38787;SDS011;24536;45.488;12.238;2023-05-09T08:47:39;4.22;;;3.17;;
38787;SDS011;24536;45.488;12.238;2023-05-09T08:50:06;5.13;;;3.97;;
38787;SDS011;24536;45.488;12.238;2023-05-09T08:52:33;4.60;;;4.20;;
38787;SDS011;24536;45.488;12.238;2023-05-09T08:55:01;3.70;;;3.10;;
38787;SDS011;24536;45.488;12.238;2023-05-09T08:57:31;4.78;;;3.85;;
38787;SDS011;24536;45.488;12.238;2023-05-09T09:00:01;6.57;;;3.60;;
38787;SDS011;24536;45.488;12.238;2023-05-09T09:02:30;3.85;;;2.97;;
38787;SDS011;24536;45.488;12.238;2023-05-09T09:04:57;4.55;;;2.92;;
38787;SDS011;24536;45.488;12.238;2023-05-09T09:07:22;3.72;;;2.88;;
38787;SDS011;24536;45.488;12.238;2023-05-09T09:09:51;3.33;;;3.00;;
38787;SDS011;24536;45.488;12.238;2023-05-09T09:12:19;3.92;;;2.75;;
38787;SDS011;24536;45.488;12.238;2023-05-09T09:14:48;5.30;;;3.50;;
38787;SDS011;24536;45.488;12.238;2023-05-09T09:17:17;3.33;;;2.80;;
38787;SDS011;24536;45.488;12.238;2023-05-09T09:19:47;3.58;;;2.55;;
38787;SDS011;24536;45.488;12.238;2023-05-09T09:22:14;2.50;;;2.30;;
38787;SDS011;24536;45.488;12.238;2023-05-09T09:24:42;2.80;;;2.50;;
38787;SDS011;24536;45.488;12.238;2023-05-09T09:27:08;2.63;;;2.35;;
38787;SDS011;24536;45.488;12.238;2023-05-09T09:29:34;4.25;;;2.75;;
38787;SDS011;24536;45.488;12.238;2023-05-09T09:32:01;3.90;;;2.50;;
38787;SDS011;24536;45.488;12.238;2023-05-09T09:34:27;3.88;;;3.33;;
38787;SDS011;24536;45.488;12.238;2023-05-09T09:36:53;2.88;;;2.58;;
38787;SDS011;24536;45.488;12.238;2023-05-09T09:39:19;5.05;;;2.47;;
38787;SDS011;24536;45.488;12.238;2023-05-09T09:41:46;2.97;;;2.65;;
38787;SDS011;24536;45.488;12.238;2023-05-09T09:44:15;3.70;;;2.78;;
38787;SDS011;24536;45.488;12.238;2023-05-09T09:46:46;3.35;;;2.13;;
38787;SDS011;24536;45.488;12.238;2023-05-09T09:49:15;2.72;;;2.42;;
38787;SDS011;24536;45.488;12.238;2023-05-09T09:51:42;3.13;;;2.17;;
38787;SDS011;24536;45.488;12.238;2023-05-09T09:54:11;2.40;;;1.98;;
38787;SDS011;24536;45.488;12.238;2023-05-09T09:56:45;3.00;;;2.65;;
38787;SDS011;24536;45.488;12.238;2023-05-09T09:59:13;3.22;;;2.58;;
38787;SDS011;24536;45.488;12.238;2023-05-09T10:01:51;2.40;;;2.20;;
38787;SDS011;24536;45.488;12.238;2023-05-09T10:04:26;2.50;;;2.20;;
38787;SDS011;24536;45.488;12.238;2023-05-09T10:06:54;2.10;;;1.77;;
38787;SDS011;24536;45.488;12.238;2023-05-09T10:09:24;4.07;;;2.38;;
38787;SDS011;24536;45.488;12.238;2023-05-09T10:11:52;2.50;;;2.20;;
38787;SDS011;24536;45.488;12.238;2023-05-09T10:14:21;3.53;;;2.47;;
38787;SDS011;24536;45.488;12.238;2023-05-09T10:16:48;3.45;;;2.70;;
38787;SDS011;24536;45.488;12.238;2023-05-09T10:19:19;2.80;;;2.03;;
38787;SDS011;24536;45.488;12.238;2023-05-09T10:21:53;3.38;;;2.60;;
38787;SDS011;24536;45.488;12.238;2023-05-09T10:24:26;3.03;;;2.40;;
38787;SDS011;24536;45.488;12.238;2023-05-09T10:27:02;2.70;;;2.17;;
38787;SDS011;24536;45.488;12.238;2023-05-09T10:29:33;2.63;;;2.03;;
38787;SDS011;24536;45.488;12.238;2023-05-09T10:32:03;4.20;;;2.45;;
38787;SDS011;24536;45.488;12.238;2023-05-09T10:34:36;2.95;;;1.90;;
38787;SDS011;24536;45.488;12.238;2023-05-09T10:37:04;1.90;;;1.67;;
38787;SDS011;24536;45.488;12.238;2023-05-09T10:39:32;2.10;;;1.90;;
38787;SDS011;24536;45.488;12.238;2023-05-09T10:41:59;3.10;;;2.38;;
38787;SDS011;24536;45.488;12.238;2023-05-09T10:44:25;2.65;;;2.08;;
38787;SDS011;24536;45.488;12.238;2023-05-09T10:46:51;2.72;;;2.35;;
38787;SDS011;24536;45.488;12.238;2023-05-09T10:49:17;3.67;;;2.50;;
38787;SDS011;24536;45.488;12.238;2023-05-09T10:51:56;3.83;;;3.15;;
38787;SDS011;24536;45.488;12.238;2023-05-09T10:54:26;2.45;;;1.98;;
38787;SDS011;24536;45.488;12.238;2023-05-09T10:56:53;3.30;;;2.22;;
38787;SDS011;24536;45.488;12.238;2023-05-09T11:02:17;2.30;;;1.90;;
38787;SDS011;24536;45.488;12.238;2023-05-09T11:04:44;2.97;;;2.30;;
38787;SDS011;24536;45.488;12.238;2023-05-09T11:07:23;3.75;;;2.40;;
38787;SDS011;24536;45.488;12.238;2023-05-09T11:09:51;4.47;;;2.10;;
38787;SDS011;24536;45.488;12.238;2023-05-09T11:12:31;4.20;;;1.90;;
38787;SDS011;24536;45.488;12.238;2023-05-09T11:15:03;4.45;;;2.95;;
38787;SDS011;24536;45.488;12.238;2023-05-09T11:17:30;2.75;;;1.92;;
38787;SDS011;24536;45.488;12.238;2023-05-09T11:20:00;2.40;;;2.15;;
38787;SDS011;24536;45.488;12.238;2023-05-09T11:22:30;2.70;;;1.80;;
38787;SDS011;24536;45.488;12.238;2023-05-09T11:25:06;2.78;;;1.88;;
38787;SDS011;24536;45.488;12.238;2023-05-09T11:30:14;2.95;;;1.80;;
38787;SDS011;24536;45.488;12.238;2023-05-09T11:35:41;7.00;;;2.53;;
38787;SDS011;24536;45.488;12.238;2023-05-09T11:38:01;2.92;;;2.42;;
38787;SDS011;24536;45.488;12.238;2023-05-09T11:40:30;1.85;;;1.70;;
38787;SDS011;24536;45.488;12.238;2023-05-09T11:42:58;2.22;;;1.75;;
38787;SDS011;24536;45.488;12.238;2023-05-09T11:45:26;2.45;;;2.10;;
38787;SDS011;24536;45.488;12.238;2023-05-09T11:47:53;2.95;;;2.60;;
38787;SDS011;24536;45.488;12.238;2023-05-09T11:50:19;3.42;;;1.80;;
38787;SDS011;24536;45.488;12.238;2023-05-09T11:52:46;3.03;;;2.08;;
38787;SDS011;24536;45.488;12.238;2023-05-09T11:55:14;5.22;;;1.90;;
38787;SDS011;24536;45.488;12.238;2023-05-09T11:57:45;4.90;;;2.10;;
38787;SDS011;24536;45.488;12.238;2023-05-09T12:41:26;2.13;;;1.40;;
38787;SDS011;24536;45.488;12.238;2023-05-09T12:43:53;2.17;;;1.98;;
38787;SDS011;24536;45.488;12.238;2023-05-09T12:46:20;2.67;;;1.55;;
38787;SDS011;24536;45.488;12.238;2023-05-09T12:48:46;1.63;;;1.52;;
38787;SDS011;24536;45.488;12.238;2023-05-09T12:51:16;2.30;;;1.52;;
38787;SDS011;24536;45.488;12.238;2023-05-09T12:53:44;1.85;;;1.60;;
38787;SDS011;24536;45.488;12.238;2023-05-09T12:56:16;1.83;;;1.67;;
38787;SDS011;24536;45.488;12.238;2023-05-09T12:58:49;1.70;;;1.60;;
38787;SDS011;24536;45.488;12.238;2023-05-09T13:01:19;2.75;;;1.83;;
38787;SDS011;24536;45.488;12.238;2023-05-09T13:04:05;4.47;;;2.20;;
38787;SDS011;24536;45.488;12.238;2023-05-09T13:06:31;5.60;;;1.70;;
38787;SDS011;24536;45.488;12.238;2023-05-09T13:08:58;2.58;;;1.88;;
38787;SDS011;24536;45.488;12.238;2023-05-09T13:11:25;2.30;;;1.80;;
38787;SDS011;24536;45.488;12.238;2023-05-09T13:13:52;3.03;;;2.15;;
38787;SDS011;24536;45.488;12.238;2023-05-09T13:16:18;2.70;;;1.88;;
38787;SDS011;24536;45.488;12.238;2023-05-09T13:18:45;1.70;;;1.60;;
38787;SDS011;24536;45.488;12.238;2023-05-09T13:21:10;3.22;;;1.80;;
38787;SDS011;24536;45.488;12.238;2023-05-09T13:23:36;1.90;;;1.80;;
38787;SDS011;24536;45.488;12.238;2023-05-09T13:26:02;1.77;;;1.63;;
38787;SDS011;24536;45.488;12.238;2023-05-09T13:28:27;2.05;;;1.55;;
38787;SDS011;24536;45.488;12.238;2023-05-09T13:30:53;1.63;;;1.48;;
38787;SDS011;24536;45.488;12.238;2023-05-09T13:33:19;2.13;;;1.65;;
38787;SDS011;24536;45.488;12.238;2023-05-09T13:35:45;1.55;;;1.45;;
38787;SDS011;24536;45.488;12.238;2023-05-09T13:38:11;1.83;;;1.63;;
38787;SDS011;24536;45.488;12.238;2023-05-09T13:40:36;2.05;;;1.80;;
38787;SDS011;24536;45.488;12.238;2023-05-09T13:43:02;1.73;;;1.48;;
38787;SDS011;24536;45.488;12.238;2023-05-09T13:45:28;2.45;;;1.50;;
38787;SDS011;24536;45.488;12.238;2023-05-09T13:47:53;2.30;;;1.25;;
38787;SDS011;24536;45.488;12.238;2023-05-09T13:50:19;1.98;;;1.77;;
38787;SDS011;24536;45.488;12.238;2023-05-09T13:52:45;3.92;;;2.30;;
38787;SDS011;24536;45.488;12.238;2023-05-09T13:55:11;3.40;;;1.67;;
38787;SDS011;24536;45.488;12.238;2023-05-09T13:57:36;4.30;;;1.80;;
38787;SDS011;24536;45.488;12.238;2023-05-09T14:00:02;2.42;;;1.40;;
38787;SDS011;24536;45.488;12.238;2023-05-09T14:02:28;2.55;;;1.58;;
38787;SDS011;24536;45.488;12.238;2023-05-09T14:04:54;1.90;;;1.23;;
38787;SDS011;24536;45.488;12.238;2023-05-09T14:07:20;1.90;;;1.70;;
38787;SDS011;24536;45.488;12.238;2023-05-09T14:09:45;2.17;;;1.60;;
38787;SDS011;24536;45.488;12.238;2023-05-09T14:12:11;2.35;;;1.50;;
38787;SDS011;24536;45.488;12.238;2023-05-09T14:14:37;2.72;;;1.35;;
38787;SDS011;24536;45.488;12.238;2023-05-09T14:17:03;6.28;;;1.67;;
38787;SDS011;24536;45.488;12.238;2023-05-09T14:19:28;1.45;;;1.30;;
38787;SDS011;24536;45.488;12.238;2023-05-09T14:21:54;2.13;;;1.65;;
38787;SDS011;24536;45.488;12.238;2023-05-09T14:24:20;3.08;;;1.92;;
38787;SDS011;24536;45.488;12.238;2023-05-09T14:26:45;3.92;;;1.58;;
38787;SDS011;24536;45.488;12.238;2023-05-09T14:29:11;1.98;;;1.77;;
38787;SDS011;24536;45.488;12.238;2023-05-09T14:31:37;2.55;;;1.60;;
38787;SDS011;24536;45.488;12.238;2023-05-09T14:34:03;2.53;;;1.88;;
38787;SDS011;24536;45.488;12.238;2023-05-09T14:36:29;1.80;;;1.70;;
38787;SDS011;24536;45.488;12.238;2023-05-09T14:38:55;2.65;;;1.63;;
38787;SDS011;24536;45.488;12.238;2023-05-09T14:41:20;2.45;;;1.67;;
38787;SDS011;24536;45.488;12.238;2023-05-09T14:43:46;2.42;;;1.90;;
38787;SDS011;24536;45.488;12.238;2023-05-09T14:46:12;1.58;;;1.35;;
38787;SDS011;24536;45.488;12.238;2023-05-09T14:48:38;2.10;;;1.90;;
38787;SDS011;24536;45.488;12.238;2023-05-09T14:51:04;2.33;;;1.92;;
38787;SDS011;24536;45.488;12.238;2023-05-09T14:53:30;2.50;;;1.88;;
38787;SDS011;24536;45.488;12.238;2023-05-09T14:55:56;2.63;;;1.75;;
38787;SDS011;24536;45.488;12.238;2023-05-09T14:58:21;2.22;;;1.50;;
38787;SDS011;24536;45.488;12.238;2023-05-09T15:00:47;5.47;;;1.85;;
38787;SDS011;24536;45.488;12.238;2023-05-09T15:03:13;1.98;;;1.63;;
38787;SDS011;24536;45.488;12.238;2023-05-09T15:05:39;2.10;;;1.63;;
38787;SDS011;24536;45.488;12.238;2023-05-09T15:08:05;4.20;;;1.70;;
38787;SDS011;24536;45.488;12.238;2023-05-09T15:10:31;2.10;;;1.90;;
38787;SDS011;24536;45.488;12.238;2023-05-09T15:12:58;2.38;;;1.92;;
38787;SDS011;24536;45.488;12.238;2023-05-09T15:15:24;2.03;;;1.65;;
38787;SDS011;24536;45.488;12.238;2023-05-09T15:17:50;2.40;;;1.40;;
38787;SDS011;24536;45.488;12.238;2023-05-09T15:20:16;1.70;;;1.60;;
38787;SDS011;24536;45.488;12.238;2023-05-09T15:22:43;3.30;;;1.95;;
38787;SDS011;24536;45.488;12.238;2023-05-09T15:25:10;5.68;;;2.33;;
38787;SDS011;24536;45.488;12.238;2023-05-09T15:27:36;1.88;;;1.70;;
38787;SDS011;24536;45.488;12.238;2023-05-09T15:30:02;3.67;;;2.20;;
38787;SDS011;24536;45.488;12.238;2023-05-09T15:32:29;2.85;;;1.95;;
38787;SDS011;24536;45.488;12.238;2023-05-09T15:34:55;2.17;;;1.70;;